Oneiro — SVA3427 — position and weather

sailwx.info

Track history (hours):
 
Tides and Currents Weather Stations Pressure Air Temp Water Temp Dewpoint Dewpoint Depression Visibility Wind Speed Wind Dir Waves Ship Positions

Oneiro

Last reported at 2016-Jul-25 13:34 UTC. Time now 2016-Jul-25 14:08 UTC.
Position N 37°25' E 025°20'.

Length 53 m; draft 3 m.

Type: Pleasure craft. MMSI: 241024000.

Date/timePositionNaut miles runAvg speedWind from/ knotsBaromVisibWave heightAir tempDewpointWater temp
2016-Jul-25 13:34N 37°25' E 025°20'0 0.0
2016-Jul-25 12:33N 37°25' E 025°20'0 0.0
2016-Jul-25 11:26N 37°25' E 025°20'0 0.0
2016-Jul-25 10:23N 37°25' E 025°20'0 0.0
2016-Jul-25 08:29N 37°25' E 025°20'0 0.0
2016-Jul-25 07:34N 37°25' E 025°20'0 0.0
2016-Jul-25 06:34N 37°25' E 025°20'0 0.0
2016-Jul-25 05:34N 37°25' E 025°20'0 0.0
2016-Jul-25 04:34N 37°25' E 025°20'0 0.0
2016-Jul-25 03:33N 37°25' E 025°20'0 0.0
2016-Jul-25 02:33N 37°25' E 025°20'0 0.0
2016-Jul-25 01:33N 37°25' E 025°20'0 0.0
2016-Jul-25 00:33N 37°25' E 025°20'0 0.0
2016-Jul-24 23:34N 37°25' E 025°20'0 0.0
2016-Jul-24 22:34N 37°25' E 025°20'0 0.0
2016-Jul-24 21:34N 37°25' E 025°20'0 0.0
2016-Jul-24 20:33N 37°25' E 025°20'0 0.0
2016-Jul-24 19:33N 37°25' E 025°20'0 0.0
2016-Jul-24 18:17N 37°25' E 025°20'0 0.0
2016-Jul-24 17:33N 37°25' E 025°20'0 0.0
2016-Jul-24 16:34N 37°25' E 025°20'0 0.0
2016-Jul-24 15:33N 37°25' E 025°20'0 0.0
2016-Jul-24 14:34N 37°25' E 025°20'0 0.0
2016-Jul-24 13:34N 37°25' E 025°20'0 0.0
2016-Jul-24 12:34N 37°25' E 025°20'0 0.0
2016-Jul-24 11:34N 37°25' E 025°20'0 0.2
2016-Jul-24 10:33N 37°24' E 025°20'9 8.8
2016-Jul-24 09:33N 37°32' E 025°14'5110.2
2016-Jul-24 04:33N 37°49' E 024°13'1611.8
2016-Jul-24 03:14N 37°38' E 023°59'811.6
2016-Jul-24 02:34N 37°43' E 023°51'1212.0
2016-Jul-24 01:33N 37°53' E 023°43'0 0.2
2016-Jul-24 00:33N 37°53' E 023°43'0 0.0
2016-Jul-23 23:33N 37°53' E 023°43'0 0.0
2016-Jul-23 22:33N 37°53' E 023°43'0 0.0
2016-Jul-23 21:33N 37°53' E 023°43'0 0.0
2016-Jul-23 20:34N 37°53' E 023°43'0 0.0
2016-Jul-23 19:33N 37°53' E 023°43'0 0.0
2016-Jul-23 18:33N 37°53' E 023°43'0 0.0
2016-Jul-23 17:33N 37°53' E 023°43'0 0.0
2016-Jul-23 16:33N 37°53' E 023°43'0 0.0
2016-Jul-23 15:33N 37°53' E 023°43'0 0.0
2016-Jul-23 14:33N 37°53' E 023°43'0 0.0
2016-Jul-23 13:33N 37°53' E 023°43'0 0.0
2016-Jul-23 12:33N 37°53' E 023°43'0 0.0
2016-Jul-23 11:33N 37°53' E 023°43'0 0.0
2016-Jul-23 10:33N 37°53' E 023°43'0 0.0
2016-Jul-23 09:34N 37°53' E 023°43'1 0.6
2016-Jul-23 08:33N 37°52' E 023°43'1111.0
2016-Jul-23 07:33N 37°45' E 023°33'0 0.0
2016-Jul-23 06:33N 37°45' E 023°33'14 7.0
2016-Jul-23 04:33N 37°32' E 023°25'2 2.3
2016-Jul-23 03:33N 37°30' E 023°27'0 0.0
2016-Jul-23 02:32N 37°30' E 023°27'0 0.0
2016-Jul-23 01:33N 37°30' E 023°27'0 0.0
2016-Jul-23 00:33N 37°30' E 023°27'0 0.0
2016-Jul-22 23:32N 37°30' E 023°27'0 0.0
2016-Jul-22 22:32N 37°30' E 023°27'0 0.0
2016-Jul-22 21:33N 37°30' E 023°27'0 0.0
2016-Jul-22 20:31N 37°30' E 023°27'0 0.0
2016-Jul-22 19:32N 37°30' E 023°27'0 0.0
2016-Jul-22 18:33N 37°30' E 023°27'0 0.0
2016-Jul-22 17:32N 37°30' E 023°27'7 6.6
2016-Jul-22 16:33N 37°24' E 023°30'3 3.4
2016-Jul-22 15:33N 37°21' E 023°28'0 0.0
2016-Jul-22 14:33N 37°21' E 023°28'5 3.8
2016-Jul-22 13:19N 37°19' E 023°23'0 0.0
2016-Jul-22 09:26N 37°19' E 023°23'3 0.1
2016-Jul-21 14:16N 37°21' E 023°20'  
2016-Jul-18 03:33N 37°02' E 025°19'7 7.0
2016-Jul-18 02:33N 37°08' E 025°14'3 0.3
2016-Jul-17 17:18N 37°11' E 025°15'14 7.5
2016-Jul-17 15:24N 37°25' E 025°20'0 0.0
2016-Jul-17 14:32N 37°25' E 025°20'0 0.0
2016-Jul-17 13:27N 37°25' E 025°20'0 0.0
2016-Jul-17 12:31N 37°25' E 025°20'0 0.0
2016-Jul-17 11:32N 37°25' E 025°20'0 0.0
2016-Jul-17 10:33N 37°25' E 025°20'0 0.0
2016-Jul-17 09:34N 37°25' E 025°20'4 3.8
2016-Jul-17 08:33N 37°23' E 025°16'0 0.0
2016-Jul-17 07:33N 37°23' E 025°16'0 0.0
2016-Jul-17 06:33N 37°23' E 025°16'15 1.2
2016-Jul-16 18:17N 37°30' E 024°59'54 9.4
2016-Jul-16 12:33N 37°43' E 023°53'1312.6
2016-Jul-16 11:34N 37°53' E 023°43'0 0.2
2016-Jul-16 10:33N 37°53' E 023°43'0 0.0
2016-Jul-16 09:33N 37°53' E 023°43'0 0.0
2016-Jul-16 08:33N 37°53' E 023°43'0 0.0
2016-Jul-16 07:34N 37°53' E 023°43'0 0.0
2016-Jul-16 06:33N 37°53' E 023°43'0 0.0
2016-Jul-16 04:33N 37°53' E 023°43'0 0.0
2016-Jul-16 03:34N 37°53' E 023°43'0 0.0
2016-Jul-16 02:33N 37°53' E 023°43'0 0.0
2016-Jul-16 01:33N 37°53' E 023°43'0 0.0
2016-Jul-16 00:33N 37°53' E 023°43'0 0.0
2016-Jul-15 23:33N 37°53' E 023°43'0 0.0
2016-Jul-15 22:33N 37°53' E 023°43'0 0.0
2016-Jul-15 21:33N 37°53' E 023°43'0 0.0
2016-Jul-15 20:33N 37°53' E 023°43'0 0.0
2016-Jul-15 19:33N 37°53' E 023°43'0 0.0
2016-Jul-15 18:33N 37°53' E 023°43'0 0.0
2016-Jul-15 17:33N 37°53' E 023°43'0 0.0
2016-Jul-15 16:34N 37°53' E 023°43'0 0.0
2016-Jul-15 15:33N 37°53' E 023°43'0 0.0
2016-Jul-15 14:33N 37°53' E 023°43'  
Track history (hours):
 
Tides and Currents Weather Stations Pressure Air Temp Water Temp Dewpoint Dewpoint Depression Visibility Wind Speed Wind Dir Waves Ship Positions

Oneiro

Last reported at 2016-Jul-25 13:34 UTC. Time now 2016-Jul-25 14:08 UTC.
Position N 37°25' E 025°20'.

Length 53 m; draft 3 m.

Type: Pleasure craft. MMSI: 241024000.

Date/timePositionNaut miles runAvg speedWind from/ knotsBaromVisibWave heightAir tempDewpointWater temp
2016-Jul-25 13:34N 37°25' E 025°20'0 0.0
2016-Jul-25 12:33N 37°25' E 025°20'0 0.0
2016-Jul-25 11:26N 37°25' E 025°20'0 0.0
2016-Jul-25 10:23N 37°25' E 025°20'0 0.0
2016-Jul-25 08:29N 37°25' E 025°20'0 0.0
2016-Jul-25 07:34N 37°25' E 025°20'0 0.0
2016-Jul-25 06:34N 37°25' E 025°20'0 0.0
2016-Jul-25 05:34N 37°25' E 025°20'0 0.0
2016-Jul-25 04:34N 37°25' E 025°20'0 0.0
2016-Jul-25 03:33N 37°25' E 025°20'0 0.0
2016-Jul-25 02:33N 37°25' E 025°20'0 0.0
2016-Jul-25 01:33N 37°25' E 025°20'0 0.0
2016-Jul-25 00:33N 37°25' E 025°20'0 0.0
2016-Jul-24 23:34N 37°25' E 025°20'0 0.0
2016-Jul-24 22:34N 37°25' E 025°20'0 0.0
2016-Jul-24 21:34N 37°25' E 025°20'0 0.0
2016-Jul-24 20:33N 37°25' E 025°20'0 0.0
2016-Jul-24 19:33N 37°25' E 025°20'0 0.0
2016-Jul-24 18:17N 37°25' E 025°20'0 0.0
2016-Jul-24 17:33N 37°25' E 025°20'0 0.0
2016-Jul-24 16:34N 37°25' E 025°20'0 0.0
2016-Jul-24 15:33N 37°25' E 025°20'0 0.0
2016-Jul-24 14:34N 37°25' E 025°20'0 0.0
2016-Jul-24 13:34N 37°25' E 025°20'0 0.0
2016-Jul-24 12:34N 37°25' E 025°20'0 0.0
2016-Jul-24 11:34N 37°25' E 025°20'0 0.2
2016-Jul-24 10:33N 37°24' E 025°20'9 8.8
2016-Jul-24 09:33N 37°32' E 025°14'5110.2
2016-Jul-24 04:33N 37°49' E 024°13'1611.8
2016-Jul-24 03:14N 37°38' E 023°59'811.6
2016-Jul-24 02:34N 37°43' E 023°51'1212.0
2016-Jul-24 01:33N 37°53' E 023°43'0 0.2
2016-Jul-24 00:33N 37°53' E 023°43'0 0.0
2016-Jul-23 23:33N 37°53' E 023°43'0 0.0
2016-Jul-23 22:33N 37°53' E 023°43'0 0.0
2016-Jul-23 21:33N 37°53' E 023°43'0 0.0
2016-Jul-23 20:34N 37°53' E 023°43'0 0.0
2016-Jul-23 19:33N 37°53' E 023°43'0 0.0
2016-Jul-23 18:33N 37°53' E 023°43'0 0.0
2016-Jul-23 17:33N 37°53' E 023°43'0 0.0
2016-Jul-23 16:33N 37°53' E 023°43'0 0.0
2016-Jul-23 15:33N 37°53' E 023°43'0 0.0
2016-Jul-23 14:33N 37°53' E 023°43'0 0.0
2016-Jul-23 13:33N 37°53' E 023°43'0 0.0
2016-Jul-23 12:33N 37°53' E 023°43'0 0.0
2016-Jul-23 11:33N 37°53' E 023°43'0 0.0
2016-Jul-23 10:33N 37°53' E 023°43'0 0.0
2016-Jul-23 09:34N 37°53' E 023°43'1 0.6
2016-Jul-23 08:33N 37°52' E 023°43'1111.0
2016-Jul-23 07:33N 37°45' E 023°33'0 0.0
2016-Jul-23 06:33N 37°45' E 023°33'14 7.0
2016-Jul-23 04:33N 37°32' E 023°25'2 2.3
2016-Jul-23 03:33N 37°30' E 023°27'0 0.0
2016-Jul-23 02:32N 37°30' E 023°27'0 0.0
2016-Jul-23 01:33N 37°30' E 023°27'0 0.0
2016-Jul-23 00:33N 37°30' E 023°27'0 0.0
2016-Jul-22 23:32N 37°30' E 023°27'0 0.0
2016-Jul-22 22:32N 37°30' E 023°27'0 0.0
2016-Jul-22 21:33N 37°30' E 023°27'0 0.0
2016-Jul-22 20:31N 37°30' E 023°27'0 0.0
2016-Jul-22 19:32N 37°30' E 023°27'0 0.0
2016-Jul-22 18:33N 37°30' E 023°27'0 0.0
2016-Jul-22 17:32N 37°30' E 023°27'7 6.6
2016-Jul-22 16:33N 37°24' E 023°30'3 3.4
2016-Jul-22 15:33N 37°21' E 023°28'0 0.0
2016-Jul-22 14:33N 37°21' E 023°28'5 3.8
2016-Jul-22 13:19N 37°19' E 023°23'0 0.0
2016-Jul-22 09:26N 37°19' E 023°23'3 0.1
2016-Jul-21 14:16N 37°21' E 023°20'  
2016-Jul-18 03:33N 37°02' E 025°19'7 7.0
2016-Jul-18 02:33N 37°08' E 025°14'3 0.3
2016-Jul-17 17:18N 37°11' E 025°15'14 7.5
2016-Jul-17 15:24N 37°25' E 025°20'0 0.0
2016-Jul-17 14:32N 37°25' E 025°20'0 0.0
2016-Jul-17 13:27N 37°25' E 025°20'0 0.0
2016-Jul-17 12:31N 37°25' E 025°20'0 0.0
2016-Jul-17 11:32N 37°25' E 025°20'0 0.0
2016-Jul-17 10:33N 37°25' E 025°20'0 0.0
2016-Jul-17 09:34N 37°25' E 025°20'4 3.8
2016-Jul-17 08:33N 37°23' E 025°16'0 0.0
2016-Jul-17 07:33N 37°23' E 025°16'0 0.0
2016-Jul-17 06:33N 37°23' E 025°16'15 1.2
2016-Jul-16 18:17N 37°30' E 024°59'54 9.4
2016-Jul-16 12:33N 37°43' E 023°53'1312.6
2016-Jul-16 11:34N 37°53' E 023°43'0 0.2
2016-Jul-16 10:33N 37°53' E 023°43'0 0.0
2016-Jul-16 09:33N 37°53' E 023°43'0 0.0
2016-Jul-16 08:33N 37°53' E 023°43'0 0.0
2016-Jul-16 07:34N 37°53' E 023°43'0 0.0
2016-Jul-16 06:33N 37°53' E 023°43'0 0.0
2016-Jul-16 04:33N 37°53' E 023°43'0 0.0
2016-Jul-16 03:34N 37°53' E 023°43'0 0.0
2016-Jul-16 02:33N 37°53' E 023°43'0 0.0
2016-Jul-16 01:33N 37°53' E 023°43'0 0.0
2016-Jul-16 00:33N 37°53' E 023°43'0 0.0
2016-Jul-15 23:33N 37°53' E 023°43'0 0.0
2016-Jul-15 22:33N 37°53' E 023°43'0 0.0
2016-Jul-15 21:33N 37°53' E 023°43'0 0.0
2016-Jul-15 20:33N 37°53' E 023°43'0 0.0
2016-Jul-15 19:33N 37°53' E 023°43'0 0.0
2016-Jul-15 18:33N 37°53' E 023°43'0 0.0
2016-Jul-15 17:33N 37°53' E 023°43'0 0.0
2016-Jul-15 16:34N 37°53' E 023°43'0 0.0
2016-Jul-15 15:33N 37°53' E 023°43'0 0.0
2016-Jul-15 14:33N 37°53' E 023°43'  

Dump ship's entire track history